Golden Princess — ZCDA9 — position and weather

sailwx.info

Track history (hours):
 
Tides and Currents Weather Stations Pressure Air Temp Water Temp Dewpoint Dewpoint Depression Visibility Wind Speed Wind Dir Waves Ship Positions

Golden Princess

Operator: Princess Cruises

Last reported at 2015-Aug-02 12:20 UTC. Time now 2015-Aug-04 17:58 UTC.
Position N 48°19' W 128°33'.

Length 289.6 m; beam 36 m; draft 8.5 m.

Type: Ship. MMSI: 310344000.

Date/timePositionNaut miles runAvg speedWind from/ knotsBaromVisibWave heightAir tempDewpointWater temp
2015-Aug-02 12:20N 48°19' W 128°33'3619.9
2015-Aug-02 10:33N 47°45' W 128°17'2019.9
2015-Aug-02 09:33N 47°27' W 128°09'2019.7
2015-Aug-02 08:33N 47°08' W 128°00'2019.6
2015-Aug-02 07:33N 46°49' W 127°52'2019.6
2015-Aug-02 06:33N 46°30' W 127°44'1933.8
2015-Aug-02 06:00N 46°12' W 127°36'1 1.4 030 / 321016.8 5.4 2.017.516.719.0
2015-Aug-02 05:33N 46°12' W 127°35'1919.4
2015-Aug-02 04:33N 45°53' W 127°27'2018.9
2015-Aug-02 03:29N 45°34' W 127°19'1818.9
2015-Aug-02 02:33N 45°17' W 127°11'1919.1
2015-Aug-02 01:33N 44°59' W 127°03'1919.3
2015-Aug-02 00:33N 44°40' W 126°55'1918.9
2015-Aug-01 23:33N 44°22' W 126°48'1919.2
2015-Aug-01 22:33N 44°04' W 126°40'2019.6
2015-Aug-01 21:33N 43°45' W 126°32'2019.9
2015-Aug-01 20:33N 43°26' W 126°24'2020.0
2015-Aug-01 19:33N 43°07' W 126°16'2120.6
2015-Aug-01 18:33N 42°47' W 126°08'2020.3
2015-Aug-01 17:33N 42°28' W 125°60'2020.1
2015-Aug-01 16:33N 42°08' W 125°52'2120.8
2015-Aug-01 15:33N 41°49' W 125°43'2120.5
2015-Aug-01 14:33N 41°29' W 125°35'6920.7
2015-Aug-01 11:14N 40°23' W 125°09'1520.2
2015-Aug-01 10:30N 40°09' W 125°02'3920.1
2015-Aug-01 08:34N 39°33' W 124°42'2019.5
2015-Aug-01 07:31N 39°15' W 124°31'1919.9
2015-Aug-01 06:33N 38°57' W 124°22'2019.7
2015-Aug-01 05:34N 38°39' W 124°11'1918.9
2015-Aug-01 04:33N 38°25' W 123°55'1918.6
2015-Aug-01 03:34N 38°12' W 123°38'1717.1
2015-Aug-01 02:33N 38°07' W 123°18'2019.8
2015-Aug-01 01:33N 37°54' W 122°58'1717.3
2015-Aug-01 00:33N 37°46' W 122°39'1212.3
2015-Jul-31 23:33N 37°48' W 122°24'0 0.0
2015-Jul-31 22:33N 37°48' W 122°24'0 0.0
2015-Jul-31 21:33N 37°48' W 122°24'0 0.0
2015-Jul-31 20:32N 37°48' W 122°24'0 0.0
2015-Jul-31 19:32N 37°48' W 122°24'0 0.0
2015-Jul-31 18:31N 37°48' W 122°24'0 0.0
2015-Jul-31 17:31N 37°48' W 122°24'0 0.0
2015-Jul-31 16:31N 37°48' W 122°24'0 0.0
2015-Jul-31 15:33N 37°48' W 122°24'0 0.0
2015-Jul-31 14:32N 37°48' W 122°24'0 0.0
2015-Jul-31 13:33N 37°48' W 122°24'4 3.7
2015-Jul-31 12:33N 37°49' W 122°29'1312.6
2015-Jul-31 11:33N 37°46' W 122°44'1515.0
2015-Jul-31 10:33N 37°53' W 123°01'1919.0
2015-Jul-31 09:33N 38°05' W 123°19'1918.5
2015-Jul-31 08:33N 38°14' W 123°40'2120.6
2015-Jul-31 07:33N 38°29' W 123°58'2120.9
2015-Jul-31 06:34N 38°45' W 124°15'2121.2
2015-Jul-31 05:34N 39°05' W 124°24'2221.6
2015-Jul-31 04:33N 39°25' W 124°34'2222.1
2015-Jul-31 03:34N 39°46' W 124°44'2421.7
2015-Jul-31 02:28N 40°08' W 124°55'2820.4
2015-Jul-31 01:06N 40°35' W 125°03'9920.8
2015-Jul-30 20:20N 42°14' W 125°06'1620.6
2015-Jul-30 19:33N 42°30' W 125°06'2120.7
2015-Jul-30 18:32N 42°51' W 125°07'2020.7
2015-Jul-30 17:33N 43°11' W 125°08'2020.3
2015-Jul-30 16:34N 43°32' W 125°09'2120.8
2015-Jul-30 15:33N 43°52' W 125°10'2121.1
2015-Jul-30 14:33N 44°13' W 125°10'2121.0
2015-Jul-30 13:34N 44°34' W 125°11'2121.1
2015-Jul-30 12:34N 44°56' W 125°12'2121.1
2015-Jul-30 11:34N 45°17' W 125°13'2121.0
2015-Jul-30 10:33N 45°38' W 125°14'2121.3
2015-Jul-30 09:34N 45°59' W 125°14'2120.8
2015-Jul-30 08:33N 46°20' W 125°15'2120.7
2015-Jul-30 07:33N 46°40' W 125°16'2020.4
2015-Jul-30 06:33N 47°01' W 125°17'2020.5
2015-Jul-30 05:34N 47°21' W 125°18'2120.6
2015-Jul-30 04:33N 47°42' W 125°19'2120.7
2015-Jul-30 03:34N 48°02' W 125°16'2120.6
2015-Jul-30 02:34N 48°23' W 125°12'1313.1
2015-Jul-30 01:34N 48°32' W 124°58'2120.8
2015-Jul-30 00:34N 48°26' W 124°28'2019.7
2015-Jul-29 23:33N 48°19' W 124°01'1716.8
2015-Jul-29 22:34N 48°15' W 123°36'1111.0
2015-Jul-29 21:33N 48°23' W 123°24'2 1.7
2015-Jul-29 20:32N 48°25' W 123°24'0 0.0
2015-Jul-29 19:32N 48°25' W 123°24'0 0.0
2015-Jul-29 18:32N 48°25' W 123°24'0 0.0
2015-Jul-29 17:31N 48°25' W 123°24'0 0.0
2015-Jul-29 16:31N 48°25' W 123°24'0 0.0
2015-Jul-29 15:33N 48°25' W 123°24'0 0.0
2015-Jul-29 14:30N 48°25' W 123°24'0 0.1
2015-Jul-29 13:33N 48°25' W 123°24'9 8.7
2015-Jul-29 12:33N 48°16' W 123°27'1211.6
2015-Jul-29 11:30N 48°14' W 123°44'1212.4
2015-Jul-29 10:33N 48°16' W 124°02'1515.2
2015-Jul-29 09:33N 48°22' W 124°22'1514.9
2015-Jul-29 08:33N 48°28' W 124°43'1515.0
2015-Jul-29 07:33N 48°28' W 125°05'1515.0
2015-Jul-29 06:33N 48°33' W 125°27'1515.0
2015-Jul-29 05:34N 48°41' W 125°46'1515.3
2015-Jul-29 04:33N 48°50' W 126°04'1817.9
2015-Jul-29 03:33N 49°01' W 126°26'1919.0
2015-Jul-29 02:34N 49°12' W 126°49'2019.2
2015-Jul-29 01:32N 49°25' W 127°12'60412.3
2015-Jul-27 00:29N 58°13' W 135°29'1617.0
2015-Jul-26 23:33N 58°20' W 135°56'1211.8
2015-Jul-26 22:33N 58°31' W 136°04'1514.6
2015-Jul-26 21:33N 58°44' W 136°16'15 2.7
2015-Jul-26 16:11N 58°52' W 136°39'1118.3
2015-Jul-26 15:33N 58°46' W 136°21'1716.5
2015-Jul-26 14:33N 58°32' W 136°04'1212.1
2015-Jul-26 13:33N 58°20' W 135°57'1211.7
2015-Jul-26 12:32N 58°16' W 135°35'30 1.1
2015-Jul-25 08:13N 58°14' W 134°38'1114.2
2015-Jul-25 07:26N 58°11' W 134°18'7 7.9
2015-Jul-25 06:32N 58°17' W 134°24'11 0.9
2015-Jul-24 18:31N 58°09' W 134°09'2222.5
2015-Jul-24 17:32N 57°49' W 133°51'2121.7
2015-Jul-24 16:33N 57°28' W 133°46'  
Track history (hours):
 
Tides and Currents Weather Stations Pressure Air Temp Water Temp Dewpoint Dewpoint Depression Visibility Wind Speed Wind Dir Waves Ship Positions

Golden Princess

Operator: Princess Cruises

Last reported at 2015-Aug-02 12:20 UTC. Time now 2015-Aug-04 17:58 UTC.
Position N 48°19' W 128°33'.

Length 289.6 m; beam 36 m; draft 8.5 m.

Type: Ship. MMSI: 310344000.

Date/timePositionNaut miles runAvg speedWind from/ knotsBaromVisibWave heightAir tempDewpointWater temp
2015-Aug-02 12:20N 48°19' W 128°33'3619.9
2015-Aug-02 10:33N 47°45' W 128°17'2019.9
2015-Aug-02 09:33N 47°27' W 128°09'2019.7
2015-Aug-02 08:33N 47°08' W 128°00'2019.6
2015-Aug-02 07:33N 46°49' W 127°52'2019.6
2015-Aug-02 06:33N 46°30' W 127°44'1933.8
2015-Aug-02 06:00N 46°12' W 127°36'1 1.4 030 / 321016.8 5.4 2.017.516.719.0
2015-Aug-02 05:33N 46°12' W 127°35'1919.4
2015-Aug-02 04:33N 45°53' W 127°27'2018.9
2015-Aug-02 03:29N 45°34' W 127°19'1818.9
2015-Aug-02 02:33N 45°17' W 127°11'1919.1
2015-Aug-02 01:33N 44°59' W 127°03'1919.3
2015-Aug-02 00:33N 44°40' W 126°55'1918.9
2015-Aug-01 23:33N 44°22' W 126°48'1919.2
2015-Aug-01 22:33N 44°04' W 126°40'2019.6
2015-Aug-01 21:33N 43°45' W 126°32'2019.9
2015-Aug-01 20:33N 43°26' W 126°24'2020.0
2015-Aug-01 19:33N 43°07' W 126°16'2120.6
2015-Aug-01 18:33N 42°47' W 126°08'2020.3
2015-Aug-01 17:33N 42°28' W 125°60'2020.1
2015-Aug-01 16:33N 42°08' W 125°52'2120.8
2015-Aug-01 15:33N 41°49' W 125°43'2120.5
2015-Aug-01 14:33N 41°29' W 125°35'6920.7
2015-Aug-01 11:14N 40°23' W 125°09'1520.2
2015-Aug-01 10:30N 40°09' W 125°02'3920.1
2015-Aug-01 08:34N 39°33' W 124°42'2019.5
2015-Aug-01 07:31N 39°15' W 124°31'1919.9
2015-Aug-01 06:33N 38°57' W 124°22'2019.7
2015-Aug-01 05:34N 38°39' W 124°11'1918.9
2015-Aug-01 04:33N 38°25' W 123°55'1918.6
2015-Aug-01 03:34N 38°12' W 123°38'1717.1
2015-Aug-01 02:33N 38°07' W 123°18'2019.8
2015-Aug-01 01:33N 37°54' W 122°58'1717.3
2015-Aug-01 00:33N 37°46' W 122°39'1212.3
2015-Jul-31 23:33N 37°48' W 122°24'0 0.0
2015-Jul-31 22:33N 37°48' W 122°24'0 0.0
2015-Jul-31 21:33N 37°48' W 122°24'0 0.0
2015-Jul-31 20:32N 37°48' W 122°24'0 0.0
2015-Jul-31 19:32N 37°48' W 122°24'0 0.0
2015-Jul-31 18:31N 37°48' W 122°24'0 0.0
2015-Jul-31 17:31N 37°48' W 122°24'0 0.0
2015-Jul-31 16:31N 37°48' W 122°24'0 0.0
2015-Jul-31 15:33N 37°48' W 122°24'0 0.0
2015-Jul-31 14:32N 37°48' W 122°24'0 0.0
2015-Jul-31 13:33N 37°48' W 122°24'4 3.7
2015-Jul-31 12:33N 37°49' W 122°29'1312.6
2015-Jul-31 11:33N 37°46' W 122°44'1515.0
2015-Jul-31 10:33N 37°53' W 123°01'1919.0
2015-Jul-31 09:33N 38°05' W 123°19'1918.5
2015-Jul-31 08:33N 38°14' W 123°40'2120.6
2015-Jul-31 07:33N 38°29' W 123°58'2120.9
2015-Jul-31 06:34N 38°45' W 124°15'2121.2
2015-Jul-31 05:34N 39°05' W 124°24'2221.6
2015-Jul-31 04:33N 39°25' W 124°34'2222.1
2015-Jul-31 03:34N 39°46' W 124°44'2421.7
2015-Jul-31 02:28N 40°08' W 124°55'2820.4
2015-Jul-31 01:06N 40°35' W 125°03'9920.8
2015-Jul-30 20:20N 42°14' W 125°06'1620.6
2015-Jul-30 19:33N 42°30' W 125°06'2120.7
2015-Jul-30 18:32N 42°51' W 125°07'2020.7
2015-Jul-30 17:33N 43°11' W 125°08'2020.3
2015-Jul-30 16:34N 43°32' W 125°09'2120.8
2015-Jul-30 15:33N 43°52' W 125°10'2121.1
2015-Jul-30 14:33N 44°13' W 125°10'2121.0
2015-Jul-30 13:34N 44°34' W 125°11'2121.1
2015-Jul-30 12:34N 44°56' W 125°12'2121.1
2015-Jul-30 11:34N 45°17' W 125°13'2121.0
2015-Jul-30 10:33N 45°38' W 125°14'2121.3
2015-Jul-30 09:34N 45°59' W 125°14'2120.8
2015-Jul-30 08:33N 46°20' W 125°15'2120.7
2015-Jul-30 07:33N 46°40' W 125°16'2020.4
2015-Jul-30 06:33N 47°01' W 125°17'2020.5
2015-Jul-30 05:34N 47°21' W 125°18'2120.6
2015-Jul-30 04:33N 47°42' W 125°19'2120.7
2015-Jul-30 03:34N 48°02' W 125°16'2120.6
2015-Jul-30 02:34N 48°23' W 125°12'1313.1
2015-Jul-30 01:34N 48°32' W 124°58'2120.8
2015-Jul-30 00:34N 48°26' W 124°28'2019.7
2015-Jul-29 23:33N 48°19' W 124°01'1716.8
2015-Jul-29 22:34N 48°15' W 123°36'1111.0
2015-Jul-29 21:33N 48°23' W 123°24'2 1.7
2015-Jul-29 20:32N 48°25' W 123°24'0 0.0
2015-Jul-29 19:32N 48°25' W 123°24'0 0.0
2015-Jul-29 18:32N 48°25' W 123°24'0 0.0
2015-Jul-29 17:31N 48°25' W 123°24'0 0.0
2015-Jul-29 16:31N 48°25' W 123°24'0 0.0
2015-Jul-29 15:33N 48°25' W 123°24'0 0.0
2015-Jul-29 14:30N 48°25' W 123°24'0 0.1
2015-Jul-29 13:33N 48°25' W 123°24'9 8.7
2015-Jul-29 12:33N 48°16' W 123°27'1211.6
2015-Jul-29 11:30N 48°14' W 123°44'1212.4
2015-Jul-29 10:33N 48°16' W 124°02'1515.2
2015-Jul-29 09:33N 48°22' W 124°22'1514.9
2015-Jul-29 08:33N 48°28' W 124°43'1515.0
2015-Jul-29 07:33N 48°28' W 125°05'1515.0
2015-Jul-29 06:33N 48°33' W 125°27'1515.0
2015-Jul-29 05:34N 48°41' W 125°46'1515.3
2015-Jul-29 04:33N 48°50' W 126°04'1817.9
2015-Jul-29 03:33N 49°01' W 126°26'1919.0
2015-Jul-29 02:34N 49°12' W 126°49'2019.2
2015-Jul-29 01:32N 49°25' W 127°12'60412.3
2015-Jul-27 00:29N 58°13' W 135°29'1617.0
2015-Jul-26 23:33N 58°20' W 135°56'1211.8
2015-Jul-26 22:33N 58°31' W 136°04'1514.6
2015-Jul-26 21:33N 58°44' W 136°16'15 2.7
2015-Jul-26 16:11N 58°52' W 136°39'1118.3
2015-Jul-26 15:33N 58°46' W 136°21'1716.5
2015-Jul-26 14:33N 58°32' W 136°04'1212.1
2015-Jul-26 13:33N 58°20' W 135°57'1211.7
2015-Jul-26 12:32N 58°16' W 135°35'30 1.1
2015-Jul-25 08:13N 58°14' W 134°38'1114.2
2015-Jul-25 07:26N 58°11' W 134°18'7 7.9
2015-Jul-25 06:32N 58°17' W 134°24'11 0.9
2015-Jul-24 18:31N 58°09' W 134°09'2222.5
2015-Jul-24 17:32N 57°49' W 133°51'2121.7
2015-Jul-24 16:33N 57°28' W 133°46'  

Dump ship's entire track history